createdAt,value
2019-02-17T00:00:08.251Z,0.00
2019-02-17T00:01:08.162Z,0.00
2019-02-17T00:02:08.073Z,0.00
2019-02-17T00:03:07.988Z,0.00
2019-02-17T00:04:07.899Z,0.00
2019-02-17T00:05:11.245Z,0.00
2019-02-17T00:06:07.739Z,0.00
2019-02-17T00:07:07.664Z,0.00
2019-02-17T00:08:07.565Z,0.00
2019-02-17T00:09:07.474Z,0.00
2019-02-17T00:10:07.388Z,0.00
2019-02-17T00:11:07.301Z,0.00
2019-02-17T00:12:07.224Z,0.00
2019-02-17T00:13:07.140Z,0.00
2019-02-17T00:14:07.050Z,0.00
2019-02-17T00:15:06.968Z,0.00
2019-02-17T00:16:06.875Z,0.00
2019-02-17T00:17:06.791Z,0.00
2019-02-17T00:18:06.721Z,0.00
2019-02-17T00:19:06.629Z,0.00
2019-02-17T00:20:08.034Z,0.00
2019-02-17T00:21:06.450Z,0.00
2019-02-17T00:22:06.364Z,0.00
2019-02-17T00:23:06.275Z,0.00
2019-02-17T00:24:06.201Z,0.00
2019-02-17T00:25:06.120Z,0.00
2019-02-17T00:26:06.030Z,0.00
2019-02-17T00:27:05.943Z,0.00
2019-02-17T00:28:05.855Z,0.00
2019-02-17T00:29:05.766Z,0.00
2019-02-17T00:30:05.680Z,0.00
2019-02-17T00:31:05.617Z,0.00
2019-02-17T00:32:05.517Z,0.00
2019-02-17T00:33:05.430Z,0.00
2019-02-17T00:34:05.341Z,0.00
2019-02-17T00:35:05.252Z,0.00
2019-02-17T00:36:05.166Z,0.00
2019-02-17T00:37:05.092Z,0.00
2019-02-17T00:38:05.005Z,0.00
2019-02-17T00:39:04.917Z,0.00
2019-02-17T00:40:04.842Z,0.00
2019-02-17T00:41:04.741Z,0.00
2019-02-17T00:42:04.654Z,0.00
2019-02-17T00:43:04.566Z,0.00
2019-02-17T00:44:04.493Z,0.00
2019-02-17T00:45:04.403Z,0.00
2019-02-17T00:46:04.316Z,0.00
2019-02-17T00:47:04.230Z,0.00
2019-02-17T00:48:04.142Z,0.00
2019-02-17T00:49:04.062Z,0.00
2019-02-17T00:50:03.969Z,0.00
2019-02-17T00:51:03.894Z,0.00
2019-02-17T00:52:03.806Z,0.00
2019-02-17T00:53:03.717Z,0.00
2019-02-17T00:54:03.629Z,0.00
2019-02-17T00:55:03.543Z,0.00
2019-02-17T00:56:03.454Z,0.00
2019-02-17T00:57:03.370Z,0.00
2019-02-17T00:58:03.296Z,0.00
2019-02-17T00:59:09.722Z,0.00
2019-02-17T01:00:03.128Z,0.00
2019-02-17T01:01:03.033Z,0.00
2019-02-17T01:02:02.947Z,0.00
2019-02-17T01:03:02.859Z,0.00
2019-02-17T01:04:02.774Z,0.00
2019-02-17T01:05:02.700Z,0.00
2019-02-17T01:06:02.610Z,0.00
2019-02-17T01:07:02.527Z,0.00
2019-02-17T01:08:02.436Z,0.00
2019-02-17T01:09:02.366Z,0.00
2019-02-17T01:10:02.259Z,0.00
2019-02-17T01:11:02.174Z,0.00
2019-02-17T01:12:02.084Z,0.00
2019-02-17T01:13:02.025Z,0.00
2019-02-17T01:14:01.925Z,0.00
2019-02-17T01:15:01.838Z,0.00
2019-02-17T01:16:01.750Z,0.00
2019-02-17T01:17:01.664Z,0.00
2019-02-17T01:18:01.586Z,0.00
2019-02-17T01:19:01.488Z,0.00
2019-02-17T01:20:01.404Z,0.00
2019-02-17T01:21:01.323Z,0.00
2019-02-17T01:22:01.235Z,0.00
2019-02-17T01:23:01.148Z,0.00
2019-02-17T01:24:01.132Z,0.00
2019-02-17T01:25:00.977Z,0.00
2019-02-17T01:26:00.888Z,0.00
2019-02-17T01:27:00.868Z,0.00
2019-02-17T01:28:00.713Z,0.00
2019-02-17T01:29:00.636Z,0.00
2019-02-17T01:30:00.553Z,0.00
2019-02-17T01:31:00.462Z,0.00
2019-02-17T01:32:00.376Z,0.00
2019-02-17T01:33:00.286Z,0.00
2019-02-17T01:34:00.204Z,0.00
2019-02-17T01:35:00.311Z,0.00
2019-02-17T01:36:00.028Z,0.00
2019-02-17T01:36:59.952Z,0.00
2019-02-17T01:37:59.863Z,0.00
2019-02-17T01:38:59.777Z,0.00
2019-02-17T01:39:59.702Z,0.00
2019-02-17T01:40:59.602Z,0.00
2019-02-17T01:41:59.512Z,0.00
2019-02-17T01:42:59.424Z,0.00
2019-02-17T01:43:59.336Z,0.00
2019-02-17T01:44:59.263Z,0.00
2019-02-17T01:45:59.181Z,0.00
2019-02-17T01:46:59.106Z,0.00
2019-02-17T01:47:59.003Z,0.00
2019-02-17T01:48:58.915Z,0.00
2019-02-17T01:49:58.827Z,0.00
2019-02-17T01:50:58.739Z,0.00
2019-02-17T01:51:58.664Z,0.00
2019-02-17T01:52:58.565Z,0.00
2019-02-17T01:53:58.500Z,0.00
2019-02-17T01:54:58.401Z,0.00
2019-02-17T01:55:58.313Z,0.00
2019-02-17T01:56:58.236Z,0.00
2019-02-17T01:57:58.141Z,0.00
2019-02-17T01:58:58.053Z,0.00
2019-02-17T01:59:57.965Z,0.00
2019-02-17T02:00:57.877Z,0.00
2019-02-17T02:01:57.810Z,0.00
2019-02-17T02:02:57.713Z,0.00
2019-02-17T02:03:57.626Z,0.00
2019-02-17T02:04:57.538Z,0.00
2019-02-17T02:05:57.452Z,0.00
2019-02-17T02:06:57.363Z,0.00
2019-02-17T02:07:57.277Z,0.00
2019-02-17T02:08:57.190Z,0.00
2019-02-17T02:09:57.104Z,0.00
2019-02-17T02:10:57.028Z,0.00
2019-02-17T02:11:56.941Z,0.00
2019-02-17T02:12:56.852Z,0.00
2019-02-17T02:13:56.764Z,0.00
2019-02-17T02:14:56.679Z,0.00
2019-02-17T02:15:56.589Z,0.00
2019-02-17T02:16:56.505Z,0.00
2019-02-17T02:17:56.417Z,0.00
2019-02-17T02:18:56.341Z,0.00
2019-02-17T02:19:56.255Z,0.00
2019-02-17T02:20:56.180Z,0.00
2019-02-17T02:21:56.081Z,0.00
2019-02-17T02:22:55.991Z,0.00
2019-02-17T02:23:55.904Z,0.00
2019-02-17T02:24:55.814Z,0.00
2019-02-17T02:25:55.728Z,0.00
2019-02-17T02:26:55.640Z,0.00
2019-02-17T02:27:55.577Z,0.00
2019-02-17T02:28:55.480Z,0.00
2019-02-17T02:29:55.392Z,0.00
2019-02-17T02:30:55.308Z,0.00
2019-02-17T02:31:55.217Z,0.00
2019-02-17T02:32:55.128Z,0.00
2019-02-17T02:33:55.040Z,0.00
2019-02-17T02:34:54.955Z,0.00
2019-02-17T02:35:54.868Z,0.00
2019-02-17T02:36:54.790Z,0.00
2019-02-17T02:37:54.703Z,0.00
2019-02-17T02:38:54.616Z,0.00
2019-02-17T02:39:54.531Z,0.00
2019-02-17T02:40:54.446Z,0.00
2019-02-17T02:41:54.367Z,0.00
2019-02-17T02:42:54.268Z,0.00
2019-02-17T02:43:54.182Z,0.00
2019-02-17T02:44:54.092Z,0.00
2019-02-17T02:45:54.016Z,0.00
2019-02-17T02:46:53.932Z,0.00
2019-02-17T02:47:53.841Z,0.00
2019-02-17T02:48:53.762Z,0.00
2019-02-17T02:49:53.669Z,0.00
2019-02-17T02:50:53.581Z,0.00
2019-02-17T02:51:53.493Z,0.00
2019-02-17T02:52:53.408Z,0.00
2019-02-17T02:53:53.333Z,0.00
2019-02-17T02:54:53.245Z,0.00
2019-02-17T02:55:53.171Z,0.00
2019-02-17T02:56:53.067Z,0.00
2019-02-17T02:57:52.980Z,0.00
2019-02-17T02:58:52.893Z,0.00
2019-02-17T02:59:52.894Z,0.00
2019-02-17T03:00:52.720Z,0.00
2019-02-17T03:01:52.632Z,0.00
2019-02-17T03:02:52.563Z,0.00
2019-02-17T03:03:52.469Z,0.00
2019-02-17T03:04:52.380Z,0.00
2019-02-17T03:05:52.292Z,0.00
2019-02-17T03:06:52.206Z,0.00
2019-02-17T03:07:52.125Z,0.00
2019-02-17T03:08:52.035Z,0.00
2019-02-17T03:09:51.945Z,0.00
2019-02-17T03:10:51.858Z,0.00
2019-02-17T03:11:51.770Z,0.00
2019-02-17T03:12:51.683Z,0.00
2019-02-17T03:13:51.607Z,0.00
2019-02-17T03:14:51.567Z,0.00
2019-02-17T03:15:51.433Z,0.00
2019-02-17T03:16:51.347Z,0.00
2019-02-17T03:17:51.259Z,0.00
2019-02-17T03:18:51.176Z,0.00
2019-02-17T03:19:51.087Z,0.00
2019-02-17T03:20:51.008Z,0.00
2019-02-17T03:21:50.908Z,0.00
2019-02-17T03:22:50.821Z,0.00
2019-02-17T03:23:50.744Z,0.00
2019-02-17T03:24:50.660Z,0.00
2019-02-17T03:25:50.570Z,0.00
2019-02-17T03:26:50.483Z,0.00
2019-02-17T03:27:50.396Z,0.00
2019-02-17T03:28:50.311Z,0.00
2019-02-17T03:29:50.224Z,0.00
2019-02-17T03:30:50.136Z,0.00
2019-02-17T03:31:50.050Z,0.00
2019-02-17T03:32:49.959Z,0.00
2019-02-17T03:33:49.885Z,0.00
2019-02-17T03:34:49.799Z,0.00
2019-02-17T03:35:49.727Z,0.00
2019-02-17T03:36:49.643Z,0.00
2019-02-17T03:37:49.536Z,0.00
2019-02-17T03:38:49.449Z,0.00
2019-02-17T03:39:49.362Z,0.00
2019-02-17T03:40:49.279Z,0.00
2019-02-17T03:41:49.197Z,0.00
2019-02-17T03:42:49.098Z,0.00
2019-02-17T03:43:49.014Z,0.00
2019-02-17T03:44:48.934Z,0.00
2019-02-17T03:45:48.853Z,0.00
2019-02-17T03:46:48.761Z,0.00
2019-02-17T03:47:48.674Z,0.00
2019-02-17T03:48:48.623Z,0.00
2019-02-17T03:49:48.500Z,0.00
2019-02-17T03:50:48.413Z,0.00
2019-02-17T03:51:48.325Z,0.00
2019-02-17T03:52:48.236Z,0.00
2019-02-17T03:53:48.150Z,0.00
2019-02-17T03:54:48.062Z,0.00
2019-02-17T03:55:47.985Z,0.00
2019-02-17T03:56:47.897Z,0.00
2019-02-17T03:57:47.816Z,0.00
2019-02-17T03:58:47.723Z,0.00
2019-02-17T03:59:47.636Z,0.00
2019-02-17T04:00:47.551Z,0.00
2019-02-17T04:01:47.464Z,0.00
2019-02-17T04:02:47.377Z,0.00
2019-02-17T04:03:47.289Z,0.00
2019-02-17T04:04:47.198Z,0.00
2019-02-17T04:05:47.124Z,0.00
2019-02-17T04:06:47.025Z,0.00
2019-02-17T04:07:46.950Z,0.00
2019-02-17T04:08:46.865Z,0.00
2019-02-17T04:09:46.777Z,0.00
2019-02-17T04:10:46.689Z,0.00
2019-02-17T04:11:46.616Z,0.00
2019-02-17T04:12:46.516Z,0.00
2019-02-17T04:13:46.431Z,0.00
2019-02-17T04:14:46.339Z,0.00
2019-02-17T04:15:46.262Z,0.00
2019-02-17T04:16:46.163Z,0.00
2019-02-17T04:17:46.075Z,0.00
2019-02-17T04:18:45.989Z,0.00
2019-02-17T04:19:45.913Z,0.00
2019-02-17T04:20:45.827Z,0.00
2019-02-17T04:21:45.742Z,0.00
2019-02-17T04:22:45.654Z,0.00
2019-02-17T04:23:45.568Z,0.00
2019-02-17T04:24:45.476Z,0.00
2019-02-17T04:25:45.396Z,0.00
2019-02-17T04:26:45.303Z,0.00
2019-02-17T04:27:45.215Z,0.00
2019-02-17T04:28:45.127Z,0.00
2019-02-17T04:29:45.040Z,0.00
2019-02-17T04:30:44.965Z,0.00
2019-02-17T04:31:44.866Z,0.00
2019-02-17T04:32:44.781Z,0.00
2019-02-17T04:33:44.703Z,0.00
2019-02-17T04:34:44.618Z,0.00
2019-02-17T04:35:44.529Z,0.00
2019-02-17T04:36:44.441Z,0.00
2019-02-17T04:37:44.358Z,0.00
2019-02-17T04:38:44.265Z,0.00
2019-02-17T04:39:44.177Z,0.00
2019-02-17T04:40:44.093Z,0.00
2019-02-17T04:41:44.005Z,0.00
2019-02-17T04:42:43.919Z,0.00
2019-02-17T04:43:43.830Z,0.00
2019-02-17T04:44:43.743Z,0.00
2019-02-17T04:45:43.656Z,0.00
2019-02-17T04:46:43.570Z,0.00
2019-02-17T04:47:43.496Z,0.00
2019-02-17T04:48:43.403Z,0.00
2019-02-17T04:49:43.317Z,0.00
2019-02-17T04:50:43.228Z,0.00
2019-02-17T04:51:43.142Z,0.00
2019-02-17T04:52:43.057Z,0.00
2019-02-17T04:53:42.988Z,0.00
2019-02-17T04:54:42.885Z,0.00
2019-02-17T04:55:42.794Z,0.00
2019-02-17T04:56:42.705Z,0.00
2019-02-17T04:57:42.617Z,0.00
2019-02-17T04:58:42.529Z,0.00
2019-02-17T04:59:42.456Z,0.00
2019-02-17T05:00:42.356Z,0.00
2019-02-17T05:01:42.280Z,0.00
2019-02-17T05:02:42.195Z,0.00
2019-02-17T05:03:42.110Z,0.00
2019-02-17T05:04:42.021Z,0.00
2019-02-17T05:05:41.933Z,0.00
2019-02-17T05:06:41.846Z,0.00
2019-02-17T05:07:41.758Z,0.00
2019-02-17T05:08:41.670Z,0.00
2019-02-17T05:09:41.594Z,0.00
2019-02-17T05:10:41.494Z,0.00
2019-02-17T05:11:41.409Z,0.00
2019-02-17T05:12:41.323Z,0.00
2019-02-17T05:13:41.233Z,0.00
2019-02-17T05:14:41.147Z,0.00
2019-02-17T05:15:41.065Z,0.00
2019-02-17T05:16:40.984Z,0.00
2019-02-17T05:17:40.898Z,0.00
2019-02-17T05:18:40.806Z,0.00
2019-02-17T05:19:40.719Z,0.00
2019-02-17T05:20:40.650Z,0.00
2019-02-17T05:21:40.562Z,0.00
2019-02-17T05:22:40.460Z,0.00
2019-02-17T05:23:40.378Z,0.00
2019-02-17T05:24:40.282Z,0.00
2019-02-17T05:25:40.196Z,0.00
2019-02-17T05:26:40.114Z,0.00
2019-02-17T05:27:40.024Z,0.00
2019-02-17T05:28:39.937Z,0.00
2019-02-17T05:29:39.848Z,0.00
2019-02-17T05:30:51.653Z,0.00
2019-02-17T05:31:39.674Z,0.00
2019-02-17T05:32:39.590Z,0.00
2019-02-17T05:33:39.511Z,0.00
2019-02-17T05:34:39.424Z,0.00
2019-02-17T05:35:39.336Z,0.00
2019-02-17T05:36:39.248Z,0.00
2019-02-17T05:37:39.159Z,0.00
2019-02-17T05:38:39.073Z,0.00
2019-02-17T05:39:38.986Z,0.00
2019-02-17T05:40:38.902Z,0.00
2019-02-17T05:41:38.811Z,0.00
2019-02-17T05:42:38.725Z,0.00
2019-02-17T05:43:38.637Z,0.00
2019-02-17T05:44:38.551Z,0.00
2019-02-17T05:45:38.461Z,0.00
2019-02-17T05:46:38.375Z,0.00
2019-02-17T05:47:38.291Z,4.00
2019-02-17T05:48:38.199Z,4.00
2019-02-17T05:49:38.112Z,0.00
2019-02-17T05:50:38.029Z,0.00
2019-02-17T05:51:37.948Z,4.00
2019-02-17T05:52:37.862Z,0.00
2019-02-17T05:53:37.776Z,4.00
2019-02-17T05:54:37.688Z,4.00
2019-02-17T05:55:37.602Z,4.00
2019-02-17T05:56:37.511Z,4.00
2019-02-17T05:57:37.460Z,8.00
2019-02-17T05:58:37.338Z,12.00
2019-02-17T05:59:37.250Z,12.00
2019-02-17T06:00:37.176Z,12.00
2019-02-17T06:01:37.078Z,16.00
2019-02-17T06:02:36.990Z,16.00
2019-02-17T06:03:36.903Z,20.00
2019-02-17T06:04:36.815Z,24.00
2019-02-17T06:05:36.727Z,28.00
2019-02-17T06:06:36.641Z,36.00
2019-02-17T06:07:36.554Z,36.00
2019-02-17T06:08:36.478Z,44.00
2019-02-17T06:09:36.387Z,52.00
2019-02-17T06:10:36.302Z,56.00
2019-02-17T06:11:36.212Z,60.00
2019-02-17T06:12:36.129Z,68.00
2019-02-17T06:13:36.040Z,76.00
2019-02-17T06:14:35.957Z,84.00
2019-02-17T06:15:35.878Z,92.00
2019-02-17T06:16:35.776Z,100.00
2019-02-17T06:17:35.689Z,112.00
2019-02-17T06:18:35.602Z,124.00
2019-02-17T06:19:35.514Z,136.00
2019-02-17T06:20:35.427Z,148.00
2019-02-17T06:21:35.341Z,160.00
2019-02-17T06:22:35.252Z,180.00
2019-02-17T06:23:35.181Z,196.00
2019-02-17T06:24:35.081Z,212.00
2019-02-17T06:25:34.994Z,232.00
2019-02-17T06:26:34.906Z,256.00
2019-02-17T06:27:34.818Z,280.00
2019-02-17T06:28:34.728Z,300.00
2019-02-17T06:29:34.653Z,328.00
2019-02-17T06:30:34.570Z,356.00
2019-02-17T06:31:34.479Z,388.00
2019-02-17T06:32:34.393Z,416.00
2019-02-17T06:33:34.306Z,444.00
2019-02-17T06:34:34.231Z,480.00
2019-02-17T06:35:34.132Z,508.00
2019-02-17T06:36:34.043Z,540.00
2019-02-17T06:37:33.965Z,576.00
2019-02-17T06:38:33.869Z,608.00
2019-02-17T06:39:33.781Z,640.00
2019-02-17T06:40:33.692Z,676.00
2019-02-17T06:41:33.605Z,704.00
2019-02-17T06:42:33.518Z,740.00
2019-02-17T06:43:33.432Z,772.00
2019-02-17T06:44:33.344Z,808.00
2019-02-17T06:45:33.261Z,844.00
2019-02-17T06:46:33.169Z,876.00
2019-02-17T06:47:33.088Z,908.00
2019-02-17T06:48:32.993Z,944.00
2019-02-17T06:49:32.919Z,976.00
2019-02-17T06:50:32.950Z,1016.00
2019-02-17T06:51:32.743Z,1048.00
2019-02-17T06:52:32.656Z,1080.00
2019-02-17T06:53:32.567Z,1120.00
2019-02-17T06:54:32.481Z,1160.00
2019-02-17T06:55:32.395Z,1196.00
2019-02-17T06:56:32.314Z,1224.00
2019-02-17T06:57:32.220Z,1256.00
2019-02-17T06:58:32.133Z,1288.00
2019-02-17T06:59:32.060Z,1316.00
2019-02-17T07:00:31.957Z,1348.00
2019-02-17T07:01:31.869Z,1376.00
2019-02-17T07:02:31.784Z,1412.00
2019-02-17T07:03:31.695Z,1436.00
2019-02-17T07:04:31.610Z,1460.00
2019-02-17T07:05:31.546Z,1480.00
2019-02-17T07:06:31.459Z,1500.00
2019-02-17T07:07:31.361Z,1528.00
2019-02-17T07:08:31.278Z,1556.00
2019-02-17T07:09:31.185Z,1588.00
2019-02-17T07:10:31.097Z,1620.00
2019-02-17T07:11:31.011Z,1660.00
2019-02-17T07:12:30.920Z,1704.00
2019-02-17T07:13:30.834Z,1748.00
2019-02-17T07:14:30.758Z,1792.00
2019-02-17T07:15:30.661Z,1844.00
2019-02-17T07:16:30.574Z,1884.00
2019-02-17T07:17:30.497Z,1916.00
2019-02-17T07:18:30.414Z,1944.00
2019-02-17T07:19:30.323Z,1984.00
2019-02-17T07:20:30.235Z,2040.00
2019-02-17T07:21:30.149Z,2092.00
2019-02-17T07:22:30.061Z,2140.00
2019-02-17T07:23:29.971Z,2188.00
2019-02-17T07:24:29.887Z,2228.00
2019-02-17T07:25:30.499Z,2280.00
2019-02-17T07:26:29.712Z,2320.00
2019-02-17T07:27:29.637Z,2336.00
2019-02-17T07:28:29.547Z,2368.00
2019-02-17T07:29:29.461Z,2388.00
2019-02-17T07:30:29.374Z,2448.00
2019-02-17T07:31:34.932Z,2516.00
2019-02-17T07:32:29.213Z,2564.00
2019-02-17T07:33:29.113Z,2600.00
2019-02-17T07:34:29.024Z,2628.00
2019-02-17T07:35:28.942Z,2672.00
2019-02-17T07:36:28.861Z,2748.00
2019-02-17T07:37:33.454Z,2792.00
2019-02-17T07:38:28.686Z,2804.00
2019-02-17T07:39:28.604Z,2808.00
2019-02-17T07:40:28.512Z,2764.00
2019-02-17T07:41:28.423Z,2792.00
2019-02-17T07:42:28.337Z,2844.00
2019-02-17T07:43:28.251Z,2912.00
2019-02-17T07:44:28.176Z,2936.00
2019-02-17T07:45:28.091Z,2968.00
2019-02-17T07:46:28.002Z,2960.00
2019-02-17T07:47:27.914Z,2916.00
2019-02-17T07:48:27.825Z,2888.00
2019-02-17T07:49:27.738Z,2896.00
2019-02-17T07:50:27.662Z,2916.00
2019-02-17T07:51:27.574Z,2940.00
2019-02-17T07:52:27.490Z,2964.00
2019-02-17T07:53:27.420Z,2984.00
2019-02-17T07:54:27.314Z,3016.00
2019-02-17T07:55:27.227Z,3052.00
2019-02-17T07:56:27.152Z,3092.00
2019-02-17T07:57:27.065Z,3112.00
2019-02-17T07:58:26.979Z,3140.00
2019-02-17T07:59:26.894Z,3172.00
2019-02-17T08:00:26.801Z,3224.00
2019-02-17T08:01:26.726Z,3304.00
2019-02-17T08:02:26.641Z,3320.00
2019-02-17T08:03:26.551Z,3316.00
2019-02-17T08:04:26.467Z,3344.00
2019-02-17T08:05:26.392Z,3380.00
2019-02-17T08:06:26.292Z,3404.00
2019-02-17T08:07:26.220Z,3432.00
2019-02-17T08:08:26.126Z,3468.00
2019-02-17T08:09:26.045Z,3496.00
2019-02-17T08:10:25.952Z,3536.00
2019-02-17T08:11:25.865Z,3568.00
2019-02-17T08:12:25.791Z,3604.00
2019-02-17T08:13:25.702Z,3660.00
2019-02-17T08:14:25.618Z,3708.00
2019-02-17T08:15:25.544Z,3752.00
2019-02-17T08:16:25.444Z,3788.00
2019-02-17T08:17:25.368Z,3828.00
2019-02-17T08:18:25.300Z,3892.00
2019-02-17T08:19:25.210Z,3948.00
2019-02-17T08:20:25.103Z,4012.00
2019-02-17T08:21:25.021Z,4076.00
2019-02-17T08:22:24.942Z,4176.00
2019-02-17T08:23:24.854Z,4248.00
2019-02-17T08:24:24.770Z,4320.00
2019-02-17T08:25:24.694Z,4460.00
2019-02-17T08:26:24.605Z,4644.00
2019-02-17T08:27:24.526Z,4788.00
2019-02-17T08:28:24.430Z,4904.00
2019-02-17T08:29:24.343Z,5072.00
2019-02-17T08:30:24.256Z,5216.00
2019-02-17T08:31:24.181Z,5340.00
2019-02-17T08:32:24.097Z,5308.00
2019-02-17T08:33:24.007Z,5292.00
2019-02-17T08:34:23.931Z,5272.00
2019-02-17T08:35:23.846Z,5264.00
2019-02-17T08:36:23.755Z,5312.00
2019-02-17T08:37:23.668Z,5256.00
2019-02-17T08:38:23.594Z,5152.00
2019-02-17T08:39:23.505Z,5124.00
2019-02-17T08:40:23.423Z,5248.00
2019-02-17T08:41:23.345Z,5328.00
2019-02-17T08:42:23.261Z,5328.00
2019-02-17T08:43:23.171Z,5388.00
2019-02-17T08:44:23.099Z,5480.00
2019-02-17T08:45:23.008Z,5516.00
2019-02-17T08:46:22.921Z,5480.00
2019-02-17T08:47:22.846Z,5468.00
2019-02-17T08:48:22.757Z,5352.00
2019-02-17T08:49:22.681Z,5384.00
2019-02-17T08:50:22.595Z,5356.00
2019-02-17T08:51:22.519Z,5308.00
2019-02-17T08:52:22.433Z,5296.00
2019-02-17T08:53:22.347Z,5292.00
2019-02-17T08:54:22.260Z,5336.00
2019-02-17T08:55:22.185Z,5464.00
2019-02-17T08:56:22.096Z,5388.00
2019-02-17T08:57:22.015Z,5248.00
2019-02-17T08:58:21.932Z,5260.00
2019-02-17T08:59:21.846Z,5348.00
2019-02-17T09:00:21.775Z,5384.00
2019-02-17T09:01:21.682Z,5312.00
2019-02-17T09:02:21.596Z,5248.00
2019-02-17T09:03:21.522Z,5200.00
2019-02-17T09:04:21.434Z,5192.00
2019-02-17T09:05:21.361Z,5184.00
2019-02-17T09:06:21.273Z,5220.00
2019-02-17T09:07:21.186Z,5356.00
2019-02-17T09:08:21.108Z,5480.00
2019-02-17T09:09:21.022Z,5516.00
2019-02-17T09:10:20.935Z,5500.00
2019-02-17T09:11:20.858Z,5452.00
2019-02-17T09:12:20.785Z,5396.00
2019-02-17T09:13:20.706Z,5400.00
2019-02-17T09:14:20.624Z,5380.00
2019-02-17T09:15:20.536Z,5412.00
2019-02-17T09:16:20.449Z,5500.00
2019-02-17T09:17:20.379Z,5500.00
2019-02-17T09:18:20.286Z,5344.00
2019-02-17T09:19:20.200Z,5056.00
2019-02-17T09:20:20.126Z,4908.00
2019-02-17T09:21:20.035Z,4812.00
2019-02-17T09:22:19.951Z,4744.00
2019-02-17T09:23:19.875Z,4676.00
2019-02-17T09:24:19.787Z,4620.00
2019-02-17T09:25:19.713Z,4564.00
2019-02-17T09:26:19.625Z,4524.00
2019-02-17T09:27:19.550Z,4540.00
2019-02-17T09:28:19.473Z,4564.00
2019-02-17T09:29:19.373Z,4524.00
2019-02-17T09:30:19.305Z,4396.00
2019-02-17T09:31:19.212Z,4252.00
2019-02-17T09:32:19.137Z,4192.00
2019-02-17T09:33:19.052Z,4188.00
2019-02-17T09:34:18.964Z,4244.00
2019-02-17T09:35:18.888Z,4336.00
2019-02-17T09:36:18.802Z,4328.00
2019-02-17T09:37:18.724Z,4288.00
2019-02-17T09:38:18.637Z,4268.00
2019-02-17T09:39:18.824Z,4236.00
2019-02-17T09:40:18.477Z,4220.00
2019-02-17T09:41:18.390Z,4184.00
2019-02-17T09:42:18.314Z,4188.00
2019-02-17T09:43:18.229Z,4192.00
2019-02-17T09:44:18.150Z,4172.00
2019-02-17T09:45:18.076Z,4184.00
2019-02-17T09:46:17.988Z,4172.00
2019-02-17T09:47:17.904Z,4144.00
2019-02-17T09:48:17.814Z,4196.00
2019-02-17T09:49:17.738Z,4192.00
2019-02-17T09:50:17.651Z,4216.00
2019-02-17T09:51:17.575Z,4268.00
2019-02-17T09:52:17.489Z,4324.00
2019-02-17T09:53:17.415Z,4340.00
2019-02-17T09:54:17.328Z,4320.00
2019-02-17T09:55:17.241Z,4320.00
2019-02-17T09:56:17.176Z,4332.00
2019-02-17T09:57:17.076Z,4332.00
2019-02-17T09:58:17.007Z,4324.00
2019-02-17T09:59:16.914Z,4316.00
2019-02-17T10:00:16.842Z,4300.00
2019-02-17T10:01:16.754Z,4420.00
2019-02-17T10:02:26.005Z,4540.00
2019-02-17T10:03:16.592Z,4560.00
2019-02-17T10:04:16.505Z,4644.00
2019-02-17T10:05:16.431Z,4672.00
2019-02-17T10:06:16.343Z,4692.00
2019-02-17T10:07:16.267Z,4760.00
2019-02-17T10:08:16.177Z,4848.00
2019-02-17T10:09:16.103Z,4868.00
2019-02-17T10:10:16.015Z,4900.00
2019-02-17T10:11:15.929Z,4924.00
2019-02-17T10:12:15.856Z,4932.00
2019-02-17T10:13:15.768Z,4944.00
2019-02-17T10:14:15.722Z,4956.00
2019-02-17T10:15:15.607Z,4940.00
2019-02-17T10:16:15.528Z,5016.00
2019-02-17T10:17:15.440Z,5096.00
2019-02-17T10:18:15.365Z,5124.00
2019-02-17T10:19:15.279Z,5200.00
2019-02-17T10:20:15.191Z,5240.00
2019-02-17T10:21:15.116Z,5240.00
2019-02-17T10:22:15.029Z,5308.00
2019-02-17T10:23:14.955Z,5332.00
2019-02-17T10:24:14.870Z,5336.00
2019-02-17T10:25:14.794Z,5352.00
2019-02-17T10:26:14.707Z,5328.00
2019-02-17T10:27:14.624Z,5324.00
2019-02-17T10:28:14.544Z,5364.00
2019-02-17T10:29:14.458Z,5388.00
2019-02-17T10:30:14.380Z,5340.00
2019-02-17T10:31:14.296Z,5276.00
2019-02-17T10:32:14.219Z,5268.00
2019-02-17T10:33:14.132Z,5292.00
2019-02-17T10:34:14.058Z,5296.00
2019-02-17T10:35:13.969Z,5344.00
2019-02-17T10:36:13.898Z,5380.00
2019-02-17T10:37:13.808Z,5400.00
2019-02-17T10:38:13.733Z,5460.00
2019-02-17T10:39:13.646Z,5544.00
2019-02-17T10:40:13.568Z,5572.00
2019-02-17T10:41:13.481Z,5588.00
2019-02-17T10:42:13.408Z,5624.00
2019-02-17T10:43:13.319Z,5656.00
2019-02-17T10:44:13.249Z,5652.00
2019-02-17T10:45:13.159Z,5616.00
2019-02-17T10:46:13.084Z,5560.00
2019-02-17T10:47:12.996Z,5536.00
2019-02-17T10:48:12.908Z,5556.00
2019-02-17T10:49:12.832Z,5644.00
2019-02-17T10:50:12.744Z,5688.00
2019-02-17T10:51:12.681Z,5640.00
2019-02-17T10:52:12.582Z,5556.00
2019-02-17T10:53:12.508Z,5500.00
2019-02-17T10:54:12.419Z,5528.00
2019-02-17T10:55:12.344Z,5484.00
2019-02-17T10:56:12.260Z,5448.00
2019-02-17T10:57:12.185Z,5376.00
2019-02-17T10:58:12.097Z,5344.00
2019-02-17T10:59:12.022Z,5408.00
2019-02-17T11:00:11.949Z,5368.00
2019-02-17T11:01:11.859Z,5380.00
2019-02-17T11:02:11.772Z,5320.00
2019-02-17T11:03:11.695Z,5412.00
2019-02-17T11:04:11.622Z,5344.00
2019-02-17T11:05:11.535Z,5388.00
2019-02-17T11:06:11.461Z,5396.00
2019-02-17T11:07:11.375Z,5724.00
2019-02-17T11:08:11.298Z,5812.00
2019-02-17T11:09:11.212Z,5820.00
2019-02-17T11:10:11.136Z,6136.00
2019-02-17T11:11:11.048Z,6344.00
2019-02-17T11:12:10.971Z,6388.00
2019-02-17T11:13:10.888Z,6428.00
2019-02-17T11:14:10.810Z,6320.00
2019-02-17T11:15:10.723Z,6036.00
2019-02-17T11:16:10.652Z,5976.00
2019-02-17T11:17:10.574Z,6036.00
2019-02-17T11:18:10.486Z,5748.00
2019-02-17T11:19:10.412Z,5456.00
2019-02-17T11:20:10.323Z,5296.00
2019-02-17T11:21:10.247Z,5208.00
2019-02-17T11:22:10.172Z,5060.00
2019-02-17T11:23:10.085Z,5068.00
2019-02-17T11:24:10.263Z,4884.00
2019-02-17T11:25:09.925Z,4856.00
2019-02-17T11:26:09.847Z,4856.00
2019-02-17T11:27:09.773Z,4816.00
2019-02-17T11:28:09.688Z,4900.00
2019-02-17T11:29:09.613Z,5144.00
2019-02-17T11:30:09.526Z,5808.00
2019-02-17T11:31:09.463Z,5380.00
2019-02-17T11:32:09.373Z,5344.00
2019-02-17T11:33:09.288Z,5800.00
2019-02-17T11:34:09.211Z,5768.00
2019-02-17T11:35:09.124Z,6028.00
2019-02-17T11:36:09.064Z,5848.00
2019-02-17T11:37:08.966Z,5888.00
2019-02-17T11:38:08.889Z,5956.00
2019-02-17T11:39:09.114Z,5784.00
2019-02-17T11:40:08.725Z,5628.00
2019-02-17T11:41:08.650Z,5240.00
2019-02-17T11:42:08.643Z,4956.00
2019-02-17T11:43:08.488Z,4968.00
2019-02-17T11:44:08.415Z,5292.00
2019-02-17T11:45:08.329Z,5976.00
2019-02-17T11:46:08.251Z,6224.00
2019-02-17T11:47:08.177Z,6044.00
2019-02-17T11:48:08.089Z,6044.00
2019-02-17T11:49:08.013Z,6320.00
2019-02-17T11:50:07.943Z,6448.00
2019-02-17T11:51:07.859Z,6592.00
2019-02-17T11:52:07.778Z,6660.00
2019-02-17T11:53:07.704Z,6688.00
2019-02-17T11:54:07.615Z,6760.00
2019-02-17T11:55:07.567Z,6824.00
2019-02-17T11:56:07.466Z,6920.00
2019-02-17T11:57:07.380Z,6932.00
2019-02-17T11:58:07.317Z,6964.00
2019-02-17T11:59:07.228Z,6972.00
2019-02-17T12:00:07.151Z,6916.00
2019-02-17T12:01:07.065Z,6960.00
2019-02-17T12:02:06.990Z,7080.00
2019-02-17T12:03:08.242Z,7100.00
2019-02-17T12:04:06.841Z,7028.00
2019-02-17T12:05:06.754Z,7164.00
2019-02-17T12:06:06.679Z,7064.00
2019-02-17T12:07:06.619Z,7192.00
2019-02-17T12:08:06.528Z,7252.00
2019-02-17T12:09:06.444Z,7240.00
2019-02-17T12:10:06.365Z,7176.00
2019-02-17T12:11:06.290Z,7136.00
2019-02-17T12:12:06.216Z,7040.00
2019-02-17T12:13:06.146Z,6848.00
2019-02-17T12:14:06.056Z,6512.00
2019-02-17T12:15:05.978Z,6536.00
2019-02-17T12:16:05.907Z,6544.00
2019-02-17T12:17:05.831Z,6380.00
2019-02-17T12:18:05.756Z,6380.00
2019-02-17T12:19:05.934Z,6244.00
2019-02-17T12:20:05.592Z,6080.00
2019-02-17T12:21:05.518Z,5924.00
2019-02-17T12:22:05.442Z,5928.00
2019-02-17T12:23:05.368Z,6016.00
2019-02-17T12:24:05.295Z,6144.00
2019-02-17T12:25:05.221Z,6152.00
2019-02-17T12:26:05.144Z,6220.00
2019-02-17T12:27:05.057Z,6236.00
2019-02-17T12:28:04.982Z,6244.00
2019-02-17T12:29:04.912Z,6304.00
2019-02-17T12:30:04.833Z,6324.00
2019-02-17T12:31:04.757Z,6288.00
2019-02-17T12:32:04.680Z,6288.00
2019-02-17T12:33:04.593Z,6316.00
2019-02-17T12:34:04.519Z,6296.00
2019-02-17T12:35:04.444Z,6304.00
2019-02-17T12:36:04.370Z,6300.00
2019-02-17T12:37:04.295Z,6308.00
2019-02-17T12:38:04.221Z,6252.00
2019-02-17T12:39:04.134Z,6176.00